CYVM/YVM METAR and TAF weather

Enter ICAO airport designator
Station Type Date Time Source
CYVM METAR 2020/01/21 18:00 UTC NOAA

CYVM 211800Z 20013KT 15SM DRSN SKC M29/M33 A2949 RMK SLP990


Station Type Date Time Source
CYVM Decoded METAR 2020/01/21 18:00 UTC NOAA

Broughton Island Airport, Canada (CYVM) 67-33N 064-02W
Jan 21, 2020 - 01:00 PM EST / 2020.01.21 1800 UTC
Wind: from the SSW (200 degrees) at 15 MPH (13 KT):0
Visibility: 15 mile(s):0
Sky conditions: clear
Weather: low drifting snow
Temperature: -20 F (-29 C)
Windchill: -45 F (-43 C):2
Dew Point: -27 F (-33 C)
Relative Humidity: 68%
Pressure (altimeter): 29.49 in. Hg (998 hPa)
ob: CYVM 211800Z 20013KT 15SM DRSN SKC M29/M33 A2949 RMK SLP990
cycle: 18

Station Type Date Time Source
CYVM TAF 2020/01/21 19:39 UTC NOAA

TAF CYVM 211838Z 2119/2207 20010KT P6SM SKC
RMK NXT FCST BY 220100Z

Example: see airport list